createdAt,value
2023-03-30T00:04:42.603Z,5.38
2023-03-30T00:09:46.122Z,5.36
2023-03-30T00:14:48.727Z,5.35
2023-03-30T00:19:50.719Z,5.33
2023-03-30T00:24:52.478Z,5.31
2023-03-30T00:29:54.251Z,5.28
2023-03-30T00:34:56.327Z,5.23
2023-03-30T00:39:58.202Z,5.20
2023-03-30T00:45:08.887Z,5.17
2023-03-30T00:50:12.299Z,5.13
2023-03-30T00:55:14.276Z,5.10
2023-03-30T01:00:16.671Z,5.07
2023-03-30T01:05:20.181Z,5.04
2023-03-30T01:10:22.094Z,5.01
2023-03-30T01:15:25.064Z,5.02
2023-03-30T01:20:40.253Z,5.03
2023-03-30T01:25:45.098Z,5.04
2023-03-30T01:31:09.830Z,5.03
2023-03-30T01:36:36.671Z,5.02
2023-03-30T01:42:09.989Z,5.01
2023-03-30T01:47:30.109Z,5.02
2023-03-30T01:52:52.760Z,5.01
2023-03-30T01:58:33.237Z,5.00
2023-03-30T02:03:40.119Z,4.96
2023-03-30T02:08:45.696Z,4.92
2023-03-30T02:13:47.443Z,4.88
2023-03-30T02:18:49.362Z,4.86
2023-03-30T02:23:55.376Z,4.85
2023-03-30T02:28:57.503Z,4.85
2023-03-30T02:34:10.448Z,4.87
2023-03-30T02:39:23.681Z,4.89
2023-03-30T02:44:43.803Z,4.91
2023-03-30T02:49:50.080Z,4.92
2023-03-30T02:55:01.158Z,4.93
2023-03-30T03:00:16.931Z,4.94
2023-03-30T03:05:20.375Z,4.95
2023-03-30T03:10:22.461Z,4.97
2023-03-30T03:15:24.951Z,4.98
2023-03-30T03:20:30.100Z,4.98
2023-03-30T03:25:32.220Z,4.96
2023-03-30T03:30:33.961Z,4.96
2023-03-30T03:35:39.031Z,4.97
2023-03-30T03:40:41.299Z,4.95
2023-03-30T03:45:45.729Z,4.93
2023-03-30T03:50:56.726Z,4.93
2023-03-30T03:55:58.816Z,4.91
2023-03-30T04:01:02.160Z,4.91
2023-03-30T04:06:05.014Z,4.90
2023-03-30T04:11:11.371Z,4.88
2023-03-30T04:16:13.295Z,4.86
2023-03-30T04:21:17.507Z,4.85
2023-03-30T04:26:19.279Z,4.85
2023-03-30T04:31:22.304Z,4.86
2023-03-30T04:36:24.260Z,4.88
2023-03-30T04:41:35.462Z,4.89
2023-03-30T04:46:37.751Z,4.93
2023-03-30T04:51:40.546Z,4.97
2023-03-30T04:56:42.351Z,5.04
2023-03-30T05:01:45.383Z,5.19
2023-03-30T05:06:49.349Z,5.41
2023-03-30T05:11:52.160Z,5.67
2023-03-30T05:16:54.148Z,5.92
2023-03-30T05:21:56.521Z,6.17
2023-03-30T05:26:58.332Z,6.37
2023-03-30T05:32:00.273Z,6.66
2023-03-30T05:37:02.252Z,7.26
2023-03-30T05:42:05.146Z,9.02
2023-03-30T05:47:07.533Z,10.43
2023-03-30T05:52:09.205Z,11.33
2023-03-30T05:57:10.927Z,11.47
2023-03-30T06:02:13.880Z,11.68
2023-03-30T06:07:17.498Z,11.91
2023-03-30T06:12:20.004Z,11.54
2023-03-30T06:17:21.769Z,11.59
2023-03-30T06:22:23.557Z,13.71
2023-03-30T06:27:25.418Z,15.85
2023-03-30T06:32:27.546Z,17.45
2023-03-30T06:37:34.279Z,18.37
2023-03-30T06:42:36.267Z,18.57
2023-03-30T06:47:38.799Z,18.60
2023-03-30T06:52:40.657Z,18.31
2023-03-30T06:57:42.821Z,18.60
2023-03-30T07:02:44.643Z,20.43
2023-03-30T07:07:47.191Z,22.40
2023-03-30T07:12:49.372Z,23.85
2023-03-30T07:17:51.572Z,24.10
2023-03-30T07:22:53.430Z,23.71
2023-03-30T07:27:55.595Z,23.04
2023-03-30T07:32:58.596Z,21.90
2023-03-30T07:38:03.803Z,21.01
2023-03-30T07:43:06.883Z,20.51
2023-03-30T07:48:08.714Z,19.64
2023-03-30T07:53:10.732Z,18.72
2023-03-30T07:58:12.721Z,17.94
2023-03-30T08:03:15.421Z,17.98
2023-03-30T08:08:17.285Z,19.28
2023-03-30T08:13:21.832Z,20.06
2023-03-30T08:18:25.495Z,19.64
2023-03-30T08:23:28.342Z,19.82
2023-03-30T08:28:30.524Z,20.18
2023-03-30T08:33:32.111Z,20.53
2023-03-30T08:38:33.972Z,20.99
2023-03-30T08:44:05.652Z,21.60
2023-03-30T08:49:14.374Z,21.69
2023-03-30T08:54:19.231Z,21.15
2023-03-30T08:59:20.903Z,20.97
2023-03-30T09:04:30.561Z,21.88
2023-03-30T09:09:41.247Z,21.91
2023-03-30T09:14:51.007Z,20.55
2023-03-30T09:20:25.297Z,19.18
2023-03-30T09:25:33.693Z,18.16
2023-03-30T09:31:02.585Z,17.71
2023-03-30T09:36:11.080Z,17.44
2023-03-30T09:41:23.876Z,17.08
2023-03-30T09:46:25.984Z,16.85
2023-03-30T09:51:31.285Z,16.78
2023-03-30T09:56:51.117Z,16.46
2023-03-30T10:01:52.996Z,15.97
2023-03-30T10:06:55.042Z,15.93
2023-03-30T10:11:57.840Z,15.87
2023-03-30T10:17:00.442Z,15.70
2023-03-30T10:22:06.310Z,15.49
2023-03-30T10:27:13.417Z,15.15
2023-03-30T10:32:19.167Z,14.75
2023-03-30T10:37:38.469Z,14.33
2023-03-30T10:42:40.581Z,14.04
2023-03-30T10:47:51.616Z,13.65
2023-03-30T10:53:08.151Z,13.24
2023-03-30T10:58:42.917Z,12.85
2023-03-30T11:03:50.981Z,12.62
2023-03-30T11:08:55.339Z,12.57
2023-03-30T11:14:02.558Z,12.70
2023-03-30T11:19:15.309Z,12.85
2023-03-30T11:24:21.610Z,13.10
2023-03-30T11:29:37.271Z,13.17
2023-03-30T11:34:53.480Z,12.97
2023-03-30T11:40:20.247Z,12.83
2023-03-30T11:45:42.953Z,12.66
2023-03-30T11:51:09.368Z,12.54
2023-03-30T11:56:21.169Z,12.43
2023-03-30T12:01:25.912Z,12.38
2023-03-30T12:06:36.087Z,12.57
2023-03-30T12:11:49.757Z,12.76
2023-03-30T12:16:57.466Z,12.88
2023-03-30T12:22:15.715Z,12.90
2023-03-30T12:27:17.893Z,12.73
2023-03-30T12:32:25.171Z,12.59
2023-03-30T12:37:34.240Z,12.46
2023-03-30T13:05:03.929Z,11.41
2023-03-30T13:10:29.162Z,11.33
2023-03-30T13:15:49.046Z,11.21
2023-03-30T13:20:51.080Z,11.07
2023-03-30T13:26:16.824Z,10.98
2023-03-30T13:31:40.660Z,10.90
2023-03-30T13:37:00.445Z,10.80
2023-03-30T13:42:32.233Z,10.67
2023-03-30T13:48:05.582Z,10.58
2023-03-30T13:53:13.574Z,10.59
2023-03-30T13:58:15.636Z,10.58
2023-03-30T14:03:34.212Z,10.54
2023-03-30T14:08:38.429Z,10.45
2023-03-30T14:13:41.024Z,10.38
2023-03-30T14:18:43.110Z,10.32
2023-03-30T14:23:51.239Z,10.29
2023-03-30T14:29:02.321Z,10.32
2023-03-30T14:34:27.216Z,10.34
2023-03-30T14:39:32.473Z,10.33
2023-03-30T14:44:39.291Z,10.29
2023-03-30T14:49:43.624Z,10.21
2023-03-30T14:55:04.333Z,10.15
2023-03-30T15:00:20.448Z,10.11
2023-03-30T15:05:25.457Z,10.06
2023-03-30T15:10:45.297Z,10.02
2023-03-30T15:15:47.183Z,9.95
2023-03-30T15:20:49.876Z,9.89
2023-03-30T15:25:57.619Z,9.88
2023-03-30T15:30:59.472Z,9.88
2023-03-30T15:36:13.787Z,9.90
2023-03-30T15:41:18.018Z,9.94
2023-03-30T15:46:19.981Z,9.99
2023-03-30T15:51:39.120Z,10.02
2023-03-30T15:56:47.083Z,10.04
2023-03-30T16:01:54.057Z,10.09
2023-03-30T16:06:56.752Z,10.16
2023-03-30T16:11:58.820Z,10.20
2023-03-30T16:17:01.018Z,10.21
2023-03-30T16:22:03.001Z,10.20
2023-03-30T16:27:06.096Z,10.18
2023-03-30T16:32:08.176Z,10.16
2023-03-30T16:37:11.080Z,10.15
2023-03-30T16:42:13.364Z,10.13
2023-03-30T16:47:16.577Z,10.12
2023-03-30T16:52:18.547Z,10.11
2023-03-30T16:57:21.313Z,10.09
2023-03-30T17:02:23.439Z,10.07
2023-03-30T17:07:26.271Z,10.06
2023-03-30T17:12:28.614Z,10.05
2023-03-30T17:17:31.367Z,10.04
2023-03-30T17:22:33.702Z,10.02
2023-03-30T17:27:37.475Z,10.01
2023-03-30T17:32:40.908Z,9.99
2023-03-30T17:37:44.055Z,9.94
2023-03-30T17:42:46.401Z,9.89
2023-03-30T17:47:49.489Z,9.85
2023-03-30T17:52:52.338Z,9.81
2023-03-30T17:57:56.297Z,9.79
2023-03-30T18:03:00.089Z,9.77
2023-03-30T18:08:03.597Z,9.76
2023-03-30T18:13:07.814Z,9.76
2023-03-30T18:18:12.526Z,9.77
2023-03-30T18:23:15.505Z,9.78
2023-03-30T18:28:20.960Z,9.82
2023-03-30T18:33:23.857Z,9.84
2023-03-30T18:38:26.115Z,9.88
2023-03-30T18:43:28.208Z,9.89
2023-03-30T18:48:30.108Z,9.90
2023-03-30T18:53:32.871Z,9.91
2023-03-30T18:58:41.204Z,9.93
2023-03-30T19:03:44.909Z,9.93
2023-03-30T19:08:47.822Z,9.91
2023-03-30T19:13:51.239Z,9.88
2023-03-30T19:18:53.235Z,9.87
2023-03-30T19:23:56.324Z,9.86
2023-03-30T19:28:58.408Z,9.84
2023-03-30T19:34:00.391Z,9.83
2023-03-30T19:39:02.845Z,9.82
2023-03-30T19:44:04.660Z,9.81
2023-03-30T19:49:07.152Z,9.80
2023-03-30T19:54:10.564Z,9.76
2023-03-30T19:59:14.399Z,9.72
2023-03-30T20:04:16.879Z,9.69
2023-03-30T20:09:20.305Z,9.69
2023-03-30T20:14:22.060Z,9.69
2023-03-30T20:19:29.453Z,9.72
2023-03-30T20:24:32.670Z,9.71
2023-03-30T20:29:36.189Z,9.72
2023-03-30T20:34:38.065Z,9.73
2023-03-30T20:39:41.821Z,9.76
2023-03-30T20:44:50.725Z,9.79
2023-03-30T20:49:54.557Z,9.80
2023-03-30T20:54:56.559Z,9.83
2023-03-30T20:59:58.427Z,9.87
2023-03-30T21:05:00.874Z,9.91
2023-03-30T21:10:05.007Z,9.94
2023-03-30T21:15:09.167Z,9.97
2023-03-30T21:20:11.758Z,9.97
2023-03-30T21:25:13.740Z,9.97
2023-03-30T21:30:15.814Z,9.96
2023-03-30T21:35:17.701Z,9.96
2023-03-30T21:40:19.595Z,9.98
2023-03-30T21:45:21.352Z,10.01
2023-03-30T21:50:23.733Z,10.03
2023-03-30T21:55:25.503Z,10.06
2023-03-30T22:00:27.483Z,10.08
2023-03-30T22:05:29.561Z,10.09
2023-03-30T22:10:32.262Z,10.09
2023-03-30T22:15:34.453Z,10.12
2023-03-30T22:20:39.598Z,10.14
2023-03-30T22:25:41.677Z,10.16
2023-03-30T22:30:44.313Z,10.18
2023-03-30T22:35:48.005Z,10.19
2023-03-30T22:40:50.177Z,10.19
2023-03-30T22:45:52.410Z,10.16
2023-03-30T22:50:54.651Z,10.13
2023-03-30T22:55:57.243Z,10.09
2023-03-30T23:01:00.846Z,10.03
2023-03-30T23:06:02.997Z,9.97
2023-03-30T23:11:06.147Z,9.92
2023-03-30T23:16:08.565Z,9.88
2023-03-30T23:21:13.584Z,9.86
2023-03-30T23:26:15.466Z,9.84
2023-03-30T23:31:18.596Z,9.83
2023-03-30T23:41:50.668Z,9.81
2023-03-30T23:46:52.624Z,9.80
2023-03-30T23:51:55.263Z,9.78
2023-03-30T23:56:57.508Z,9.76
